Kennydale, Washington
Current Conditions -  °F | °C
As of 3:07 PM on Tuesday 27 Jan 2015 (Local Time) from KRNT Reporting Station
Haze Haze  
Wind Chill: 52°   Ceiling: 1100
Heat Index: 52°   Visibility: 1.2mi
Dew Point: 50°   Wind: 0mph
Humidity: 93%   Direction: NA
Pressure: 30.11"   Gusts: NA
Location:  47.5152°N, 122.184°W
Report Text: KRNT 272307Z 00000KT 1 1/4SM BR OVC011 11/10 A3011 RMK AO2 RAE2254 P0000 T01110100
Loading
Personal Weather Stations






























Interactive Weather Map New forecast layout! Learn more

10-Day Weather Forecast

Advertisements
Track Severe Weather on mobile